createdAt,value
2022-11-02T00:00:51.941Z,26.3
2022-11-02T00:01:54.528Z,26.5
2022-11-02T00:02:57.301Z,26.2
2022-11-02T00:04:00.289Z,26.4
2022-11-02T00:05:02.773Z,26.6
2022-11-02T00:06:05.247Z,26.2
2022-11-02T00:07:07.733Z,26.8
2022-11-02T00:08:09.658Z,26.7
2022-11-02T00:09:12.138Z,26.5
2022-11-02T00:10:14.611Z,26.5
2022-11-02T00:11:17.083Z,26.5
2022-11-02T00:12:19.029Z,26.7
2022-11-02T00:13:21.564Z,26.7
2022-11-02T00:14:24.029Z,26.5
2022-11-02T00:15:26.500Z,26.8
2022-11-02T00:16:28.980Z,26.5
2022-11-02T00:17:31.176Z,26.7
2022-11-02T00:18:33.671Z,26.5
2022-11-02T00:19:36.151Z,26.8
2022-11-02T00:20:38.341Z,26.7
2022-11-02T00:21:40.813Z,26.7
2022-11-02T00:22:42.986Z,26.8
2022-11-02T00:23:44.926Z,26.8
2022-11-02T00:24:47.402Z,26.8
2022-11-02T00:25:49.872Z,26.8
2022-11-02T00:26:51.768Z,26.8
2022-11-02T00:27:53.987Z,26.7
2022-11-02T00:28:56.521Z,26.6
2022-11-02T00:29:59.515Z,26.6
2022-11-02T00:31:01.425Z,26.7
2022-11-02T00:32:03.617Z,27
2022-11-02T00:33:06.006Z,26.7
2022-11-02T00:34:08.979Z,26.9
2022-11-02T00:35:11.170Z,26.8
2022-11-02T00:36:12.840Z,26.8
2022-11-02T00:37:15.006Z,26.7
2022-11-02T00:38:17.212Z,26.8
2022-11-02T00:39:19.682Z,26.8
2022-11-02T00:40:21.638Z,26.6
2022-11-02T00:41:23.260Z,26.9
2022-11-02T00:42:25.464Z,26.9
2022-11-02T00:43:27.965Z,26.9
2022-11-02T00:44:30.506Z,27
2022-11-02T00:45:32.421Z,26.9
2022-11-02T00:46:34.048Z,26.9
2022-11-02T00:47:36.249Z,27
2022-11-02T00:48:38.445Z,27.1
2022-11-02T00:49:40.346Z,27.1
2022-11-02T00:50:42.826Z,27
2022-11-02T00:51:45.340Z,26.8
2022-11-02T00:52:47.552Z,27
2022-11-02T00:53:50.021Z,27.1
2022-11-02T00:54:52.217Z,27
2022-11-02T00:55:54.395Z,26.9
2022-11-02T00:56:56.647Z,27
2022-11-02T00:57:58.820Z,27
2022-11-02T00:59:01.634Z,27.1
2022-11-02T01:00:04.186Z,27.2
2022-11-02T01:01:06.473Z,27.1
2022-11-02T01:02:09.759Z,27.2
2022-11-02T01:03:12.910Z,27.3
2022-11-02T01:04:15.183Z,27
2022-11-02T01:05:17.375Z,27.1
2022-11-02T01:06:19.856Z,27.1
2022-11-02T01:07:22.323Z,27.2
2022-11-02T01:08:24.796Z,27.1
2022-11-02T01:09:27.267Z,27.3
2022-11-02T01:10:29.762Z,27.3
2022-11-02T01:11:31.951Z,27.1
2022-11-02T01:12:34.153Z,27.4
2022-11-02T01:13:36.622Z,27
2022-11-02T01:14:39.118Z,27.2
2022-11-02T01:15:41.657Z,27.2
2022-11-02T01:17:47.147Z,27
2022-11-02T01:18:49.344Z,27.2
2022-11-02T01:19:51.531Z,27.2
2022-11-02T01:20:54.032Z,27.1
2022-11-02T01:21:56.501Z,27
2022-11-02T01:22:58.710Z,27.4
2022-11-02T01:24:01.179Z,27.4
2022-11-02T01:25:03.392Z,27.3
2022-11-02T01:26:05.317Z,27.5
2022-11-02T01:27:07.789Z,27.1
2022-11-02T01:28:10.254Z,27.4
2022-11-02T01:29:12.735Z,27.4
2022-11-02T01:30:14.687Z,27
2022-11-02T01:31:17.225Z,27.4
2022-11-02T01:32:19.688Z,27.1
2022-11-02T01:33:22.161Z,27.3
2022-11-02T01:34:24.634Z,27.5
2022-11-02T01:35:27.105Z,27.4
2022-11-02T01:36:29.293Z,27.3
2022-11-02T01:37:31.488Z,27.5
2022-11-02T01:38:33.657Z,27.3
2022-11-02T01:39:35.552Z,27.6
2022-11-02T01:40:37.474Z,27.3
2022-11-02T01:41:39.948Z,27.2
2022-11-02T01:42:42.139Z,27.3
2022-11-02T01:43:44.336Z,27.3
2022-11-02T01:44:46.548Z,27.2
2022-11-02T01:45:48.753Z,27.4
2022-11-02T01:46:51.282Z,27.6
2022-11-02T01:47:53.761Z,27.3
2022-11-02T01:48:56.219Z,27
2022-11-02T01:49:59.536Z,27.1
2022-11-02T01:51:01.718Z,27.2
2022-11-02T01:52:04.190Z,27.3
2022-11-02T01:53:06.669Z,27.3
2022-11-02T01:54:08.585Z,27.4
2022-11-02T01:55:10.785Z,27.5
2022-11-02T01:56:13.051Z,27.3
2022-11-02T01:57:15.904Z,27.6
2022-11-02T01:58:18.072Z,27.3
2022-11-02T01:59:20.548Z,27.2
2022-11-02T02:00:23.012Z,27.4
2022-11-02T02:01:25.630Z,27.7
2022-11-02T02:02:29.059Z,27.4
2022-11-02T02:03:32.492Z,27.8
2022-11-02T02:04:34.404Z,27.6
2022-11-02T02:05:36.600Z,27.4
2022-11-02T02:06:39.063Z,27.6
2022-11-02T02:07:41.539Z,27.4
2022-11-02T02:08:44.021Z,27.3
2022-11-02T02:09:47.234Z,27.5
2022-11-02T02:10:50.936Z,27.7
2022-11-02T02:11:53.142Z,27.6
2022-11-02T02:12:55.333Z,27.5
2022-11-02T02:13:57.527Z,27.6
2022-11-02T02:14:59.997Z,27.5
2022-11-02T02:16:02.200Z,27.8
2022-11-02T02:17:04.432Z,27.5
2022-11-02T02:18:07.238Z,27.3
2022-11-02T02:19:09.777Z,27.5
2022-11-02T02:20:12.243Z,27.4
2022-11-02T02:21:14.737Z,27.4
2022-11-02T02:22:16.954Z,27.7
2022-11-02T02:23:19.154Z,27.5
2022-11-02T02:24:21.630Z,27.5
2022-11-02T02:25:24.104Z,27.5
2022-11-02T02:26:26.010Z,27.5
2022-11-02T02:27:28.190Z,27.2
2022-11-02T02:28:30.385Z,27.4
2022-11-02T02:29:32.561Z,27.7
2022-11-02T02:30:35.024Z,27.3
2022-11-02T02:31:36.934Z,27.4
2022-11-02T02:32:38.874Z,27.9
2022-11-02T02:33:41.415Z,27.6
2022-11-02T02:34:43.879Z,27.5
2022-11-02T02:35:46.081Z,27.3
2022-11-02T02:36:47.987Z,27.5
2022-11-02T02:37:49.919Z,27.4
2022-11-02T02:38:51.559Z,27.3
2022-11-02T02:39:53.743Z,27.5
2022-11-02T02:40:55.666Z,27.2
2022-11-02T02:41:57.854Z,27.4
2022-11-02T02:43:00.327Z,27.7
2022-11-02T02:44:02.252Z,27.7
2022-11-02T02:45:04.718Z,27.7
2022-11-02T02:46:06.911Z,27.5
2022-11-02T02:47:09.086Z,27.5
2022-11-02T02:48:11.579Z,27.5
2022-11-02T02:49:14.145Z,27.5
2022-11-02T02:50:16.350Z,27.5
2022-11-02T02:51:18.541Z,27.8
2022-11-02T02:52:21.018Z,27.7
2022-11-02T02:53:23.483Z,27.6
2022-11-02T02:54:25.387Z,27.8
2022-11-02T02:55:27.850Z,27.5
2022-11-02T02:56:30.048Z,27.5
2022-11-02T02:57:32.244Z,27.5
2022-11-02T02:58:34.136Z,27.6
2022-11-02T02:59:36.046Z,27.6
2022-11-02T03:00:38.245Z,27.5
2022-11-02T03:01:40.589Z,27.8
2022-11-02T03:02:43.484Z,28
2022-11-02T03:03:46.087Z,27.5
2022-11-02T03:04:48.610Z,27.7
2022-11-02T03:05:50.506Z,27.8
2022-11-02T03:06:52.704Z,27.4
2022-11-02T03:07:55.172Z,27.5
2022-11-02T03:08:57.649Z,27.5
2022-11-02T03:09:59.848Z,27.8
2022-11-02T03:11:02.307Z,27.7
2022-11-02T03:12:04.508Z,27.4
2022-11-02T03:13:06.726Z,27.6
2022-11-02T03:14:08.649Z,27.7
2022-11-02T03:15:11.122Z,27.7
2022-11-02T03:16:13.600Z,27.8
2022-11-02T03:17:16.067Z,27.5
2022-11-02T03:18:18.310Z,27.5
2022-11-02T03:19:20.235Z,27.7
2022-11-02T03:20:22.778Z,27.5
2022-11-02T03:21:24.679Z,27.6
2022-11-02T03:22:27.169Z,27.7
2022-11-02T03:23:29.088Z,27.7
2022-11-02T03:24:31.569Z,27.6
2022-11-02T03:25:33.758Z,27.7
2022-11-02T03:26:36.240Z,27.6
2022-11-02T03:27:38.418Z,27.6
2022-11-02T03:28:40.887Z,27.6
2022-11-02T03:29:42.806Z,27.7
2022-11-02T03:30:45.037Z,27.7
2022-11-02T03:31:47.239Z,27.6
2022-11-02T03:32:49.179Z,27.7
2022-11-02T03:33:51.425Z,27.4
2022-11-02T03:34:53.648Z,27.7
2022-11-02T03:35:56.292Z,27.6
2022-11-02T03:36:58.571Z,27.7
2022-11-02T03:38:01.700Z,27.7
2022-11-02T03:39:05.972Z,27.8
2022-11-02T03:40:08.163Z,27.6
2022-11-02T03:41:10.380Z,27.7
2022-11-02T03:42:13.203Z,27.7
2022-11-02T03:43:15.683Z,27.8
2022-11-02T03:44:17.874Z,27.7
2022-11-02T03:45:19.795Z,27.6
2022-11-02T03:46:22.257Z,27.6
2022-11-02T03:47:24.194Z,27.6
2022-11-02T03:48:26.387Z,27.7
2022-11-02T03:49:28.311Z,27.7
2022-11-02T03:50:30.802Z,27.6
2022-11-02T03:51:33.364Z,27.7
2022-11-02T03:52:35.584Z,27.7
2022-11-02T03:53:37.330Z,27.7
2022-11-02T03:54:39.548Z,27.6
2022-11-02T03:55:41.798Z,27.6
2022-11-02T03:56:43.747Z,27.6
2022-11-02T03:57:45.962Z,27.6
2022-11-02T03:58:48.180Z,27.6
2022-11-02T03:59:50.657Z,27.5
2022-11-02T04:00:52.862Z,27.5
2022-11-02T04:01:55.149Z,27.6
2022-11-02T04:02:58.186Z,27.6
2022-11-02T04:04:00.375Z,27.7
2022-11-02T04:05:02.607Z,27.6
2022-11-02T04:06:05.217Z,27.6
2022-11-02T04:07:08.183Z,27.6
2022-11-02T04:08:10.445Z,27.5
2022-11-02T04:09:12.134Z,27.5
2022-11-02T04:10:14.630Z,27.3
2022-11-02T04:11:16.556Z,27.4
2022-11-02T04:12:18.781Z,27.4
2022-11-02T04:13:21.029Z,27.6
2022-11-02T04:14:23.495Z,27.3
2022-11-02T04:15:26.000Z,27.3
2022-11-02T04:16:28.706Z,27.6
2022-11-02T04:18:33.405Z,27.1
2022-11-02T04:19:36.010Z,27.3
2022-11-02T04:20:38.491Z,27.3
2022-11-02T04:21:40.787Z,27.5
2022-11-02T04:22:43.345Z,27.2
2022-11-02T04:23:45.579Z,27.7
2022-11-02T04:24:47.775Z,26.9
2022-11-02T04:25:50.256Z,26.9
2022-11-02T04:26:52.443Z,27.2
2022-11-02T04:27:54.923Z,26.7
2022-11-02T04:28:56.831Z,26.8
2022-11-02T04:29:59.029Z,27.2
2022-11-02T04:31:01.222Z,26.8
2022-11-02T04:32:03.437Z,27.3
2022-11-02T04:33:05.920Z,27.3
2022-11-02T04:34:08.110Z,27.1
2022-11-02T04:35:10.296Z,27
2022-11-02T04:36:12.767Z,27.1
2022-11-02T04:37:14.988Z,27.2
2022-11-02T04:38:17.539Z,27
2022-11-02T04:39:19.728Z,27.2
2022-11-02T04:40:22.208Z,27.1
2022-11-02T04:41:24.675Z,27.1
2022-11-02T04:42:27.145Z,27.2
2022-11-02T04:43:28.783Z,26.8
2022-11-02T04:44:31.250Z,27.1
2022-11-02T04:45:33.444Z,27.2
2022-11-02T04:46:35.636Z,26.9
2022-11-02T04:47:38.131Z,26.9
2022-11-02T04:48:40.662Z,27.1
2022-11-02T04:49:43.227Z,27
2022-11-02T04:50:45.718Z,27
2022-11-02T04:51:49.818Z,27.2
2022-11-02T04:52:52.272Z,27
2022-11-02T04:53:54.884Z,27
2022-11-02T04:54:56.799Z,27
2022-11-02T04:55:58.997Z,26.9
2022-11-02T04:57:01.189Z,27.1
2022-11-02T04:58:03.253Z,26.9
2022-11-02T04:59:07.487Z,27
2022-11-02T05:00:09.991Z,27
2022-11-02T05:01:12.200Z,26.9
2022-11-02T05:02:14.750Z,26.8
2022-11-02T05:03:17.684Z,26.8
2022-11-02T05:04:20.195Z,26.9
2022-11-02T05:05:22.400Z,26.8
2022-11-02T05:06:24.884Z,26.8
2022-11-02T05:07:27.077Z,26.8
2022-11-02T05:08:29.578Z,26.9
2022-11-02T05:09:32.120Z,26.9
2022-11-02T05:10:34.602Z,26.8
2022-11-02T05:11:36.800Z,27
2022-11-02T05:12:39.285Z,26.9
2022-11-02T05:13:41.760Z,27
2022-11-02T05:14:43.972Z,26.9
2022-11-02T05:15:46.451Z,27
2022-11-02T05:16:48.661Z,26.8
2022-11-02T05:17:51.181Z,27
2022-11-02T05:18:53.625Z,26.8
2022-11-02T05:19:56.096Z,26.9
2022-11-02T05:20:58.016Z,26.9
2022-11-02T05:22:00.490Z,26.8
2022-11-02T05:23:03.258Z,26.9
2022-11-02T05:24:07.669Z,26.7
2022-11-02T05:25:10.218Z,26.7
2022-11-02T05:26:12.412Z,26.9
2022-11-02T05:27:14.908Z,26.9
2022-11-02T05:28:17.115Z,26.8
2022-11-02T05:29:19.329Z,26.9
2022-11-02T05:30:21.826Z,26.8
2022-11-02T05:31:24.345Z,27
2022-11-02T05:32:26.555Z,26.8
2022-11-02T05:33:30.643Z,26.9
2022-11-02T05:34:33.357Z,26.8
2022-11-02T05:35:35.581Z,26.8
2022-11-02T05:36:37.513Z,26.9
2022-11-02T05:37:39.726Z,26.9
2022-11-02T05:38:42.207Z,27
2022-11-02T05:39:46.338Z,26.7
2022-11-02T05:40:49.818Z,26.8
2022-11-02T05:41:52.395Z,26.6
2022-11-02T05:42:54.871Z,26.9
2022-11-02T05:43:57.068Z,26.8
2022-11-02T05:44:59.549Z,26.8
2022-11-02T05:46:02.062Z,26.8
2022-11-02T05:47:04.264Z,26.8
2022-11-02T05:48:06.467Z,26.8
2022-11-02T05:49:08.933Z,26.8
2022-11-02T05:50:11.127Z,26.8
2022-11-02T05:51:13.622Z,26.8
2022-11-02T05:52:15.824Z,26.8
2022-11-02T05:53:18.297Z,26.8
2022-11-02T05:54:20.769Z,26.8
2022-11-02T05:55:23.269Z,26.8
2022-11-02T05:56:25.470Z,26.5
2022-11-02T05:57:28.084Z,26.8
2022-11-02T05:58:30.558Z,26.7
2022-11-02T05:59:33.040Z,26.8
2022-11-02T06:00:35.234Z,26.8
2022-11-02T06:01:37.739Z,26.8
2022-11-02T06:02:40.428Z,26.9
2022-11-02T06:03:42.973Z,26.7
2022-11-02T06:04:51.240Z,26.7
2022-11-02T06:05:53.644Z,26.7
2022-11-02T06:06:56.116Z,26.7
2022-11-02T06:07:58.591Z,26.8
2022-11-02T06:09:05.896Z,26.7
2022-11-02T06:10:05.810Z,26.7
2022-11-02T06:11:07.740Z,26.9
2022-11-02T06:12:10.208Z,26.7
2022-11-02T06:13:12.775Z,26.8
2022-11-02T06:14:15.268Z,26.7
2022-11-02T06:15:17.467Z,26.7
2022-11-02T06:16:22.884Z,26.7
2022-11-02T06:17:24.380Z,26.7
2022-11-02T06:18:25.733Z,26.7
2022-11-02T06:19:28.031Z,26.8
2022-11-02T06:20:30.234Z,26.6
2022-11-02T06:21:32.718Z,26.8
2022-11-02T06:22:35.283Z,26.6
2022-11-02T06:23:37.778Z,26.8
2022-11-02T06:24:40.252Z,26.7
2022-11-02T06:25:42.734Z,26.7
2022-11-02T06:26:44.967Z,26.7
2022-11-02T06:27:47.164Z,26.6
2022-11-02T06:28:49.709Z,26.8
2022-11-02T06:29:51.918Z,26.6
2022-11-02T06:30:54.388Z,26.6
2022-11-02T06:31:56.593Z,26.7
2022-11-02T06:33:02.882Z,26.6
2022-11-02T06:34:04.063Z,26.6
2022-11-02T06:35:06.308Z,26.7
2022-11-02T06:36:08.792Z,26.7
2022-11-02T06:37:10.739Z,26.6
2022-11-02T06:38:13.229Z,26.7
2022-11-02T06:39:15.179Z,26.6
2022-11-02T06:40:18.329Z,26.8
2022-11-02T06:41:22.365Z,26.8
2022-11-02T06:42:24.325Z,26.8
2022-11-02T06:43:26.525Z,26.7
2022-11-02T06:44:29.088Z,26.6
2022-11-02T06:45:30.716Z,26.6
2022-11-02T06:46:32.943Z,26.6
2022-11-02T06:47:35.249Z,26.5
2022-11-02T06:48:37.745Z,26.6
2022-11-02T06:49:39.929Z,26.5
2022-11-02T06:50:42.136Z,26.6
2022-11-02T06:51:44.152Z,26.5
2022-11-02T06:52:46.127Z,26.7
2022-11-02T06:53:48.083Z,26.5
2022-11-02T06:54:50.557Z,26.5
2022-11-02T06:55:52.760Z,26.5
2022-11-02T06:56:54.693Z,26.4
2022-11-02T06:57:57.221Z,26.5
2022-11-02T06:58:59.403Z,26.6
2022-11-02T07:00:02.121Z,26.5
2022-11-02T07:01:05.104Z,26.6
2022-11-02T07:02:08.379Z,26.5
2022-11-02T07:03:11.548Z,26.7
2022-11-02T07:04:13.789Z,26.6
2022-11-02T07:05:16.010Z,26.6
2022-11-02T07:06:18.511Z,26.7
2022-11-02T07:07:21.008Z,26.5
2022-11-02T07:08:23.509Z,26.8
2022-11-02T07:09:25.707Z,26.8
2022-11-02T07:10:28.340Z,26.6
2022-11-02T07:11:30.616Z,26.6
2022-11-02T07:12:32.251Z,26.7
2022-11-02T07:13:34.763Z,26.7
2022-11-02T07:14:37.284Z,26.5
2022-11-02T07:15:39.603Z,26.6
2022-11-02T07:16:42.125Z,26.6
2022-11-02T07:17:44.340Z,26.5
2022-11-02T07:18:46.548Z,26.7
2022-11-02T07:19:48.487Z,26.6
2022-11-02T07:20:50.409Z,26.7
2022-11-02T07:21:52.359Z,26.7
2022-11-02T07:22:54.554Z,26.7
2022-11-02T07:23:57.087Z,26.6
2022-11-02T07:24:59.341Z,26.7
2022-11-02T07:26:01.835Z,26.7
2022-11-02T07:27:04.043Z,26.6
2022-11-02T07:28:05.967Z,26.8
2022-11-02T07:29:08.198Z,26.8
2022-11-02T07:30:10.683Z,26.8
2022-11-02T07:31:13.288Z,26.6
2022-11-02T07:32:15.765Z,26.6
2022-11-02T07:33:17.984Z,26.6
2022-11-02T07:34:19.362Z,26.7
2022-11-02T07:35:21.542Z,26.7
2022-11-02T07:36:23.474Z,26.5
2022-11-02T07:37:25.959Z,26.7
2022-11-02T07:38:28.138Z,26.7
2022-11-02T07:39:30.385Z,26.8
2022-11-02T07:40:32.330Z,26.7
2022-11-02T07:41:34.540Z,26.7
2022-11-02T07:42:36.476Z,26.8
2022-11-02T07:43:39.994Z,26.8
2022-11-02T07:44:43.704Z,26.6
2022-11-02T07:45:46.181Z,26.6
2022-11-02T07:46:48.817Z,26.5
2022-11-02T07:47:51.295Z,26.7
2022-11-02T07:48:53.770Z,26.8
2022-11-02T07:49:56.176Z,26.6
2022-11-02T07:50:59.345Z,26.5
2022-11-02T07:52:01.557Z,26.7
2022-11-02T07:53:04.003Z,26.5
2022-11-02T07:54:08.259Z,26.7
2022-11-02T07:55:10.471Z,26.7
2022-11-02T07:56:12.690Z,26.5
2022-11-02T07:57:15.183Z,26.6
2022-11-02T07:58:17.392Z,26.6
2022-11-02T07:59:19.896Z,26.8
2022-11-02T08:00:22.128Z,26.6
2022-11-02T08:01:24.384Z,26.4
2022-11-02T08:02:27.175Z,26.7
2022-11-02T08:03:29.679Z,26.7
2022-11-02T08:04:32.109Z,26.5
2022-11-02T08:05:33.785Z,26.5
2022-11-02T08:06:36.276Z,26.8
2022-11-02T08:07:38.484Z,26.6
2022-11-02T08:08:40.686Z,26.5
2022-11-02T08:09:42.606Z,26.7
2022-11-02T08:10:44.827Z,26.6
2022-11-02T08:11:47.043Z,26.6
2022-11-02T08:12:49.243Z,26.5
2022-11-02T08:13:51.763Z,26.5
2022-11-02T08:14:54.251Z,26.6
2022-11-02T08:15:56.766Z,26.5
2022-11-02T08:16:58.967Z,26.6
2022-11-02T08:18:01.631Z,26.6
2022-11-02T08:19:06.109Z,26.5
2022-11-02T08:20:08.046Z,26.6
2022-11-02T08:21:10.234Z,26.6
2022-11-02T08:22:12.481Z,26.6
2022-11-02T08:23:14.713Z,26.6
2022-11-02T08:24:17.200Z,26.5
2022-11-02T08:25:19.676Z,26.5
2022-11-02T08:26:21.322Z,26.6
2022-11-02T08:27:23.534Z,26.5
2022-11-02T08:28:25.472Z,26.5
2022-11-02T08:29:27.392Z,26.6
2022-11-02T08:30:29.897Z,26.5
2022-11-02T08:31:32.410Z,26.5
2022-11-02T08:32:34.894Z,26.4
2022-11-02T08:33:37.501Z,26.3
2022-11-02T08:34:39.711Z,26.6
2022-11-02T08:35:41.628Z,26.5
2022-11-02T08:36:43.843Z,26.6
2022-11-02T08:37:45.785Z,26.4
2022-11-02T08:38:47.426Z,26.4
2022-11-02T08:39:49.630Z,26.5
2022-11-02T08:40:51.543Z,26.4
2022-11-02T08:41:54.040Z,26.3
2022-11-02T08:42:56.239Z,26.4
2022-11-02T08:43:58.448Z,26.5
2022-11-02T08:45:00.932Z,26.4
2022-11-02T08:46:18.737Z,26.5
2022-11-02T08:47:09.277Z,26.5
2022-11-02T08:48:12.211Z,26.5
2022-11-02T08:49:14.809Z,26.5
2022-11-02T08:50:16.744Z,26.5
2022-11-02T08:51:18.669Z,26.4
2022-11-02T08:52:20.732Z,26.5
2022-11-02T08:53:22.661Z,26.4
2022-11-02T08:54:24.569Z,26.7
2022-11-02T08:55:26.505Z,26.5
2022-11-02T08:56:28.704Z,26.4
2022-11-02T08:57:31.174Z,26.5
2022-11-02T08:58:33.664Z,26.5
2022-11-02T08:59:35.868Z,26.6
2022-11-02T09:00:38.070Z,26.6
2022-11-02T09:01:40.332Z,26.5
2022-11-02T09:02:43.501Z,26.5
2022-11-02T09:03:46.212Z,26.5
2022-11-02T09:04:48.772Z,26.6
2022-11-02T09:05:51.297Z,26.5
2022-11-02T09:06:53.206Z,26.5
2022-11-02T09:07:55.425Z,26.6
2022-11-02T09:08:57.996Z,26.5
2022-11-02T09:10:01.711Z,26.4
2022-11-02T09:11:03.918Z,26.6
2022-11-02T09:12:06.432Z,26.4
2022-11-02T09:13:08.906Z,26.4
2022-11-02T09:14:11.539Z,26.5
2022-11-02T09:15:14.248Z,26.7
2022-11-02T09:16:16.731Z,26.5
2022-11-02T09:17:18.369Z,26.6
2022-11-02T09:18:20.617Z,26.6
2022-11-02T09:19:22.837Z,26.6
2022-11-02T09:20:25.454Z,26.5
2022-11-02T09:21:27.940Z,26.5
2022-11-02T09:22:30.185Z,26.5
2022-11-02T09:23:32.413Z,26.6
2022-11-02T09:24:34.617Z,26.7
2022-11-02T09:25:36.823Z,26.7
2022-11-02T09:26:39.199Z,26.5
2022-11-02T09:27:41.408Z,26.5
2022-11-02T09:28:43.887Z,26.4
2022-11-02T09:29:46.382Z,26.5
2022-11-02T09:30:47.739Z,26.5
2022-11-02T09:31:49.710Z,26.6
2022-11-02T09:32:52.195Z,26.5
2022-11-02T09:33:54.157Z,26.5
2022-11-02T09:34:56.359Z,26.6
2022-11-02T09:35:58.926Z,26.5
2022-11-02T09:37:01.156Z,26.6
2022-11-02T09:38:03.407Z,26.5
2022-11-02T09:39:05.353Z,26.5
2022-11-02T09:40:06.993Z,26.5
2022-11-02T09:41:09.481Z,26.6
2022-11-02T09:42:11.421Z,26.5
2022-11-02T09:43:13.897Z,26.6
2022-11-02T09:44:16.109Z,26.6
2022-11-02T09:45:18.310Z,26.6
2022-11-02T09:46:20.531Z,26.6
2022-11-02T09:48:28.710Z,26.5
2022-11-02T09:49:32.741Z,26.5
2022-11-02T09:50:34.984Z,26.6
2022-11-02T09:51:37.312Z,26.5
2022-11-02T09:52:39.809Z,26.5
2022-11-02T09:53:42.290Z,26.5
2022-11-02T09:54:44.471Z,26.5
2022-11-02T09:55:46.674Z,26.5
2022-11-02T09:56:48.614Z,26.5
2022-11-02T09:57:50.821Z,26.4
2022-11-02T09:58:52.747Z,26.6
2022-11-02T09:59:54.952Z,26.5
2022-11-02T10:01:00.757Z,26.3
2022-11-02T10:02:02.160Z,26.6
2022-11-02T10:03:04.406Z,26.3
2022-11-02T10:04:07.111Z,26.5
2022-11-02T10:05:09.068Z,26.5
2022-11-02T10:06:11.264Z,26.5
2022-11-02T10:07:13.902Z,26.5
2022-11-02T10:08:15.802Z,26.4
2022-11-02T10:09:17.732Z,26.5
2022-11-02T10:10:19.933Z,26.6
2022-11-02T10:11:22.109Z,26.3
2022-11-02T10:12:24.199Z,26.4
2022-11-02T10:13:26.124Z,26.5
2022-11-02T10:14:28.329Z,26.5
2022-11-02T10:15:30.266Z,26.5
2022-11-02T10:16:32.534Z,26.5
2022-11-02T10:17:34.749Z,26.4
2022-11-02T10:18:36.678Z,26.4
2022-11-02T10:19:38.855Z,26.5
2022-11-02T10:20:41.101Z,26.4
2022-11-02T10:21:43.591Z,26.5
2022-11-02T10:22:46.184Z,26.6
2022-11-02T10:23:48.361Z,26.4
2022-11-02T10:24:50.563Z,26.4
2022-11-02T10:25:52.739Z,26.4
2022-11-02T10:26:54.387Z,26.5
2022-11-02T10:27:56.895Z,26.4
2022-11-02T10:28:59.147Z,26.5
2022-11-02T10:30:01.106Z,26.5
2022-11-02T10:31:03.346Z,26.4
2022-11-02T10:32:05.568Z,26.4
2022-11-02T10:33:08.094Z,26.6
2022-11-02T10:34:10.585Z,26.4
2022-11-02T10:35:31.508Z,26.5
2022-11-02T10:36:19.124Z,26.5
2022-11-02T10:37:22.211Z,26.2
2022-11-02T10:38:24.771Z,26.4
2022-11-02T10:39:26.710Z,26.4
2022-11-02T10:40:28.352Z,26.4
2022-11-02T10:41:30.564Z,26.7
2022-11-02T10:42:33.047Z,26.5
2022-11-02T10:43:34.957Z,26.5
2022-11-02T10:44:36.919Z,26.4
2022-11-02T10:45:39.139Z,26.5
2022-11-02T10:46:40.893Z,26.4
2022-11-02T10:47:43.457Z,26.5
2022-11-02T10:48:45.962Z,26.5
2022-11-02T10:49:48.186Z,26.5
2022-11-02T10:50:50.672Z,26.4
2022-11-02T10:51:52.624Z,26.5
2022-11-02T10:52:54.845Z,26.5
2022-11-02T10:54:00.403Z,26.5
2022-11-02T10:55:03.271Z,26.4
2022-11-02T10:56:05.771Z,26.4
2022-11-02T10:57:07.982Z,26.5
2022-11-02T10:58:09.899Z,26.6
2022-11-02T10:59:12.107Z,26.4
2022-11-02T11:00:14.586Z,26.5
2022-11-02T11:01:16.645Z,26.3
2022-11-02T11:02:19.328Z,26.6
2022-11-02T11:03:21.543Z,26.5
2022-11-02T11:04:23.772Z,26.5
2022-11-02T11:05:26.254Z,26.4
2022-11-02T11:06:28.461Z,26.4
2022-11-02T11:07:30.268Z,26.4
2022-11-02T11:08:32.746Z,26.4
2022-11-02T11:09:35.198Z,26.5
2022-11-02T11:10:37.741Z,26.5
2022-11-02T11:11:39.970Z,26.4
2022-11-02T11:12:41.637Z,26.3
2022-11-02T11:15:53.267Z,26.4
2022-11-02T11:16:55.968Z,26.4
2022-11-02T11:20:12.154Z,26.4
2022-11-02T11:21:14.641Z,26.5
2022-11-02T11:22:16.590Z,26.4
2022-11-02T11:23:18.808Z,26.5
2022-11-02T11:24:20.782Z,26.6
2022-11-02T11:25:27.369Z,26.5
2022-11-02T11:26:28.421Z,26.4
2022-11-02T11:27:30.683Z,26.4
2022-11-02T11:28:32.895Z,26.4
2022-11-02T11:29:34.815Z,26.5
2022-11-02T11:30:58.756Z,26.4
2022-11-02T11:31:42.298Z,26.4
2022-11-02T11:32:44.787Z,26.3
2022-11-02T11:33:46.983Z,26.4
2022-11-02T11:34:48.921Z,26.4
2022-11-02T11:35:51.167Z,26.2
2022-11-02T11:36:53.691Z,26.4
2022-11-02T11:37:55.943Z,26.5
2022-11-02T11:38:58.228Z,26.3
2022-11-02T11:40:00.421Z,26.4
2022-11-02T11:41:02.630Z,26.5
2022-11-02T11:42:04.860Z,26.6
2022-11-02T11:43:07.189Z,26.4
2022-11-02T11:44:09.117Z,26.5
2022-11-02T11:45:11.591Z,26.4
2022-11-02T11:46:13.814Z,26.4
2022-11-02T11:47:15.733Z,26.3
2022-11-02T11:48:18.220Z,26.5
2022-11-02T11:49:20.429Z,26.5
2022-11-02T11:50:28.402Z,26.4
2022-11-02T11:51:31.400Z,26.3
2022-11-02T11:52:33.962Z,26.4
2022-11-02T11:53:36.170Z,26.5
2022-11-02T11:54:38.397Z,26.6
2022-11-02T11:55:40.872Z,26.4
2022-11-02T11:56:43.376Z,26.4
2022-11-02T11:57:45.289Z,26.4
2022-11-02T11:58:49.600Z,26.5
2022-11-02T11:59:53.093Z,26.5
2022-11-02T12:00:55.293Z,26.5
2022-11-02T12:01:56.778Z,26.5
2022-11-02T12:03:00.478Z,26.5
2022-11-02T12:04:04.738Z,26.3
2022-11-02T12:05:06.665Z,26.4
2022-11-02T12:06:08.603Z,26.4
2022-11-02T12:07:10.520Z,26.4
2022-11-02T12:08:13.005Z,26.4
2022-11-02T12:09:15.202Z,26.4
2022-11-02T12:10:16.880Z,26.4
2022-11-02T12:11:19.429Z,26.3
2022-11-02T12:12:21.729Z,26.4
2022-11-02T12:13:23.402Z,26.5
2022-11-02T12:14:25.687Z,26.4
2022-11-02T12:15:28.171Z,26.3
2022-11-02T12:16:30.416Z,26.5
2022-11-02T12:17:32.922Z,26.4
2022-11-02T12:18:34.833Z,26.6
2022-11-02T12:19:37.312Z,26.2
2022-11-02T12:20:39.514Z,26.4
2022-11-02T12:21:41.719Z,26.4
2022-11-02T12:22:43.076Z,26.3
2022-11-02T12:23:44.715Z,26.4
2022-11-02T12:24:46.931Z,26.4
2022-11-02T12:25:49.200Z,26.2
2022-11-02T12:26:51.678Z,26.4
2022-11-02T12:27:54.239Z,26.5
2022-11-02T12:28:57.224Z,26.4
2022-11-02T12:29:59.511Z,26.6
2022-11-02T12:31:01.180Z,26.2
2022-11-02T12:32:03.704Z,26.4
2022-11-02T12:33:06.291Z,26.4
2022-11-02T12:34:09.656Z,26.3
2022-11-02T12:35:29.224Z,26.5
2022-11-02T12:36:17.123Z,26.3
2022-11-02T12:37:40.716Z,26.4
2022-11-02T12:38:24.364Z,26.3
2022-11-02T12:39:26.269Z,26.4
2022-11-02T12:40:28.468Z,26.3
2022-11-02T12:41:30.684Z,26.4
2022-11-02T12:42:32.882Z,26.3
2022-11-02T12:43:41.304Z,26.4
2022-11-02T12:44:43.787Z,26.4
2022-11-02T12:45:46.533Z,26.4
2022-11-02T12:46:49.346Z,26.4
2022-11-02T12:47:51.346Z,26.4
2022-11-02T12:48:53.270Z,26.4
2022-11-02T12:49:55.753Z,26.4
2022-11-02T12:50:58.450Z,26.4
2022-11-02T12:52:00.399Z,26.5
2022-11-02T12:53:02.588Z,26.3
2022-11-02T12:54:07.084Z,26.5
2022-11-02T12:55:13.219Z,26.4
2022-11-02T12:56:14.561Z,26.4
2022-11-02T12:57:16.816Z,26.3
2022-11-02T12:58:19.307Z,26.5
2022-11-02T12:59:21.803Z,26.5
2022-11-02T13:00:23.457Z,26.5
2022-11-02T13:01:26.208Z,26.4
2022-11-02T13:02:29.253Z,26.5
2022-11-02T13:03:31.440Z,26.4
2022-11-02T13:04:36.908Z,26.5
2022-11-02T13:05:38.646Z,26.4
2022-11-02T13:06:40.580Z,26.6
2022-11-02T13:07:43.094Z,26.5
2022-11-02T13:08:45.025Z,26.4
2022-11-02T13:09:51.305Z,26.6
2022-11-02T13:10:53.655Z,26.3
2022-11-02T13:11:56.378Z,26.6
2022-11-02T13:12:58.942Z,26.4
2022-11-02T13:14:00.938Z,26.3
2022-11-02T13:15:06.787Z,26.6
2022-11-02T13:16:08.491Z,26.5
2022-11-02T13:17:10.520Z,26.3
2022-11-02T13:18:13.035Z,26.3
2022-11-02T13:19:15.572Z,26.5
2022-11-02T13:20:18.076Z,26.5
2022-11-02T13:21:20.604Z,26.4
2022-11-02T13:22:22.564Z,26.4
2022-11-02T13:23:24.329Z,26.4
2022-11-02T13:24:28.118Z,26.4
2022-11-02T13:25:32.234Z,26.3
2022-11-02T13:26:34.143Z,26.5
2022-11-02T13:27:37.364Z,26.6
2022-11-02T13:28:41.096Z,26.5
2022-11-02T13:29:43.299Z,26.3
2022-11-02T13:30:45.250Z,26.4
2022-11-02T13:31:48.615Z,26.6
2022-11-02T13:32:51.266Z,26.4
2022-11-02T13:33:53.784Z,26.4
2022-11-02T13:34:56.048Z,26.4
2022-11-02T13:35:58.324Z,26.5
2022-11-02T13:37:00.850Z,26.4
2022-11-02T13:38:03.375Z,26.5
2022-11-02T13:39:08.160Z,26.4
2022-11-02T13:40:10.692Z,26.3
2022-11-02T13:41:12.943Z,26.4
2022-11-02T13:42:15.245Z,26.6
2022-11-02T13:43:17.739Z,26.4
2022-11-02T13:44:20.323Z,26.5
2022-11-02T13:45:22.291Z,26.6
2022-11-02T13:46:25.195Z,26.5
2022-11-02T13:47:27.124Z,26.5
2022-11-02T13:48:29.441Z,26.5
2022-11-02T13:49:31.658Z,26.5
2022-11-02T13:50:33.893Z,26.4
2022-11-02T13:51:35.854Z,26.4
2022-11-02T13:52:37.761Z,26.5
2022-11-02T13:53:40.261Z,26.5
2022-11-02T13:54:42.202Z,26.4
2022-11-02T13:55:45.680Z,26.4
2022-11-02T13:56:48.640Z,26.6
2022-11-02T13:57:50.554Z,26.4
2022-11-02T13:58:52.227Z,26.5
2022-11-02T13:59:54.797Z,26.5
2022-11-02T14:00:57.279Z,26.4